sensor_id;sensor_type;location;lat;lon;timestamp;temperature;humidity
17984;DHT22;9117;52.420;20.728;2023-05-09T00:02:14;6.50;99.90
17984;DHT22;9117;52.420;20.728;2023-05-09T00:04:43;6.40;99.90
17984;DHT22;9117;52.420;20.728;2023-05-09T00:07:12;6.40;99.90
17984;DHT22;9117;52.420;20.728;2023-05-09T00:09:40;6.30;99.90
17984;DHT22;9117;52.420;20.728;2023-05-09T00:12:08;6.30;99.90
17984;DHT22;9117;52.420;20.728;2023-05-09T00:14:39;6.30;99.90
17984;DHT22;9117;52.420;20.728;2023-05-09T00:17:07;6.30;99.90
17984;DHT22;9117;52.420;20.728;2023-05-09T00:19:35;6.00;99.90
17984;DHT22;9117;52.420;20.728;2023-05-09T00:22:03;6.00;99.90
17984;DHT22;9117;52.420;20.728;2023-05-09T00:24:32;6.00;99.90
17984;DHT22;9117;52.420;20.728;2023-05-09T00:27:00;5.90;99.90
17984;DHT22;9117;52.420;20.728;2023-05-09T00:29:28;5.90;99.90
17984;DHT22;9117;52.420;20.728;2023-05-09T00:31:58;6.10;99.90
17984;DHT22;9117;52.420;20.728;2023-05-09T00:34:26;6.00;99.90
17984;DHT22;9117;52.420;20.728;2023-05-09T00:36:54;6.00;99.90
17984;DHT22;9117;52.420;20.728;2023-05-09T00:39:22;6.00;99.90
17984;DHT22;9117;52.420;20.728;2023-05-09T00:41:51;5.90;99.90
17984;DHT22;9117;52.420;20.728;2023-05-09T00:44:19;5.70;99.90
17984;DHT22;9117;52.420;20.728;2023-05-09T00:46:47;5.70;99.90
17984;DHT22;9117;52.420;20.728;2023-05-09T00:49:17;5.60;99.90
17984;DHT22;9117;52.420;20.728;2023-05-09T00:51:46;5.50;99.90
17984;DHT22;9117;52.420;20.728;2023-05-09T00:54:15;5.50;99.90
17984;DHT22;9117;52.420;20.728;2023-05-09T00:56:43;5.40;99.90
17984;DHT22;9117;52.420;20.728;2023-05-09T00:59:12;5.50;99.90
17984;DHT22;9117;52.420;20.728;2023-05-09T01:01:43;5.50;99.90
17984;DHT22;9117;52.420;20.728;2023-05-09T01:04:12;5.50;99.90
17984;DHT22;9117;52.420;20.728;2023-05-09T01:06:47;5.40;99.90
17984;DHT22;9117;52.420;20.728;2023-05-09T01:09:23;5.30;99.90
17984;DHT22;9117;52.420;20.728;2023-05-09T01:11:58;5.20;99.90
17984;DHT22;9117;52.420;20.728;2023-05-09T01:14:37;5.20;99.90
17984;DHT22;9117;52.420;20.728;2023-05-09T01:17:15;5.20;99.90
17984;DHT22;9117;52.420;20.728;2023-05-09T01:19:59;5.20;99.90
17984;DHT22;9117;52.420;20.728;2023-05-09T01:22:34;5.10;99.90
17984;DHT22;9117;52.420;20.728;2023-05-09T01:25:35;5.20;99.90
17984;DHT22;9117;52.420;20.728;2023-05-09T01:28:11;5.10;99.90
17984;DHT22;9117;52.420;20.728;2023-05-09T01:30:44;5.10;99.90
17984;DHT22;9117;52.420;20.728;2023-05-09T01:33:17;5.00;99.90
17984;DHT22;9117;52.420;20.728;2023-05-09T01:35:50;4.90;99.90
17984;DHT22;9117;52.420;20.728;2023-05-09T01:38:21;4.90;99.90
17984;DHT22;9117;52.420;20.728;2023-05-09T01:40:53;5.00;99.90
17984;DHT22;9117;52.420;20.728;2023-05-09T01:43:22;4.80;99.90
17984;DHT22;9117;52.420;20.728;2023-05-09T01:45:54;4.80;99.90
17984;DHT22;9117;52.420;20.728;2023-05-09T01:48:24;4.80;99.90
17984;DHT22;9117;52.420;20.728;2023-05-09T01:50:53;4.80;99.90
17984;DHT22;9117;52.420;20.728;2023-05-09T01:53:23;4.70;99.90
17984;DHT22;9117;52.420;20.728;2023-05-09T01:55:54;4.60;99.90
17984;DHT22;9117;52.420;20.728;2023-05-09T01:58:25;4.50;99.90
17984;DHT22;9117;52.420;20.728;2023-05-09T02:00:55;4.50;99.90
17984;DHT22;9117;52.420;20.728;2023-05-09T02:03:24;4.60;99.90
17984;DHT22;9117;52.420;20.728;2023-05-09T02:05:54;4.70;99.90
17984;DHT22;9117;52.420;20.728;2023-05-09T02:08:23;4.70;99.90
17984;DHT22;9117;52.420;20.728;2023-05-09T02:10:52;4.80;99.90
17984;DHT22;9117;52.420;20.728;2023-05-09T02:13:20;4.80;99.90
17984;DHT22;9117;52.420;20.728;2023-05-09T02:15:48;4.80;99.90
17984;DHT22;9117;52.420;20.728;2023-05-09T02:18:18;4.80;99.90
17984;DHT22;9117;52.420;20.728;2023-05-09T02:20:47;4.80;99.90
17984;DHT22;9117;52.420;20.728;2023-05-09T02:23:15;4.70;99.90
17984;DHT22;9117;52.420;20.728;2023-05-09T02:25:44;4.80;99.90
17984;DHT22;9117;52.420;20.728;2023-05-09T02:28:13;4.70;99.90
17984;DHT22;9117;52.420;20.728;2023-05-09T02:30:43;4.60;99.90
17984;DHT22;9117;52.420;20.728;2023-05-09T02:33:12;4.70;99.90
17984;DHT22;9117;52.420;20.728;2023-05-09T02:35:44;4.70;99.90
17984;DHT22;9117;52.420;20.728;2023-05-09T02:38:13;4.70;99.90
17984;DHT22;9117;52.420;20.728;2023-05-09T02:40:43;4.80;99.90
17984;DHT22;9117;52.420;20.728;2023-05-09T02:43:11;4.80;99.90
17984;DHT22;9117;52.420;20.728;2023-05-09T02:45:41;4.70;99.90
17984;DHT22;9117;52.420;20.728;2023-05-09T02:48:09;4.50;99.90
17984;DHT22;9117;52.420;20.728;2023-05-09T02:50:37;4.50;99.90
17984;DHT22;9117;52.420;20.728;2023-05-09T02:53:10;4.50;99.90
17984;DHT22;9117;52.420;20.728;2023-05-09T02:55:38;4.50;99.90
17984;DHT22;9117;52.420;20.728;2023-05-09T02:58:07;4.50;99.90
17984;DHT22;9117;52.420;20.728;2023-05-09T03:00:41;4.40;99.90
17984;DHT22;9117;52.420;20.728;2023-05-09T03:03:09;4.40;99.90
17984;DHT22;9117;52.420;20.728;2023-05-09T03:05:37;4.30;99.90
17984;DHT22;9117;52.420;20.728;2023-05-09T03:08:06;4.30;99.90
17984;DHT22;9117;52.420;20.728;2023-05-09T03:10:35;4.30;99.90
17984;DHT22;9117;52.420;20.728;2023-05-09T03:13:03;4.30;99.90
17984;DHT22;9117;52.420;20.728;2023-05-09T03:15:31;4.30;99.90
17984;DHT22;9117;52.420;20.728;2023-05-09T03:18:00;4.30;99.90
17984;DHT22;9117;52.420;20.728;2023-05-09T03:20:28;4.30;99.90
17984;DHT22;9117;52.420;20.728;2023-05-09T03:22:56;4.30;99.90
17984;DHT22;9117;52.420;20.728;2023-05-09T03:25:24;4.20;99.90
17984;DHT22;9117;52.420;20.728;2023-05-09T03:27:54;4.30;99.90
17984;DHT22;9117;52.420;20.728;2023-05-09T03:30:22;4.30;99.90
17984;DHT22;9117;52.420;20.728;2023-05-09T03:32:52;4.40;99.90
17984;DHT22;9117;52.420;20.728;2023-05-09T03:35:20;4.30;99.90
17984;DHT22;9117;52.420;20.728;2023-05-09T03:37:48;4.50;99.90
17984;DHT22;9117;52.420;20.728;2023-05-09T03:40:17;4.50;99.90
17984;DHT22;9117;52.420;20.728;2023-05-09T03:42:45;4.50;99.90
17984;DHT22;9117;52.420;20.728;2023-05-09T03:45:15;4.50;99.90
17984;DHT22;9117;52.420;20.728;2023-05-09T03:47:43;4.70;99.90
17984;DHT22;9117;52.420;20.728;2023-05-09T03:50:12;4.50;99.90
17984;DHT22;9117;52.420;20.728;2023-05-09T03:52:40;4.50;99.90
17984;DHT22;9117;52.420;20.728;2023-05-09T03:55:09;4.60;99.90
17984;DHT22;9117;52.420;20.728;2023-05-09T03:57:38;4.70;99.90
17984;DHT22;9117;52.420;20.728;2023-05-09T04:00:07;4.70;99.90
17984;DHT22;9117;52.420;20.728;2023-05-09T04:02:37;4.70;99.90
17984;DHT22;9117;52.420;20.728;2023-05-09T04:05:06;4.80;99.90
17984;DHT22;9117;52.420;20.728;2023-05-09T04:07:34;4.90;99.90
17984;DHT22;9117;52.420;20.728;2023-05-09T04:10:02;5.00;99.90
17984;DHT22;9117;52.420;20.728;2023-05-09T04:12:31;5.10;99.90
17984;DHT22;9117;52.420;20.728;2023-05-09T04:14:59;5.10;99.90
17984;DHT22;9117;52.420;20.728;2023-05-09T04:17:27;5.10;99.90
17984;DHT22;9117;52.420;20.728;2023-05-09T04:19:57;5.20;99.90
17984;DHT22;9117;52.420;20.728;2023-05-09T04:22:25;5.30;99.90
17984;DHT22;9117;52.420;20.728;2023-05-09T04:24:53;5.40;99.90
17984;DHT22;9117;52.420;20.728;2023-05-09T04:27:22;5.40;99.90
17984;DHT22;9117;52.420;20.728;2023-05-09T04:29:50;5.50;99.90
17984;DHT22;9117;52.420;20.728;2023-05-09T04:32:19;5.50;99.90
17984;DHT22;9117;52.420;20.728;2023-05-09T04:34:49;5.60;99.90
17984;DHT22;9117;52.420;20.728;2023-05-09T04:37:18;5.70;99.90
17984;DHT22;9117;52.420;20.728;2023-05-09T04:39:46;5.70;99.90
17984;DHT22;9117;52.420;20.728;2023-05-09T04:42:14;5.80;99.90
17984;DHT22;9117;52.420;20.728;2023-05-09T04:44:43;5.90;99.90
17984;DHT22;9117;52.420;20.728;2023-05-09T04:47:11;6.00;99.90
17984;DHT22;9117;52.420;20.728;2023-05-09T04:49:39;6.20;99.90
17984;DHT22;9117;52.420;20.728;2023-05-09T04:52:07;6.30;99.90
17984;DHT22;9117;52.420;20.728;2023-05-09T04:54:37;6.30;99.90
17984;DHT22;9117;52.420;20.728;2023-05-09T04:57:05;6.50;99.90
17984;DHT22;9117;52.420;20.728;2023-05-09T04:59:44;6.50;99.90
17984;DHT22;9117;52.420;20.728;2023-05-09T05:02:12;6.60;99.90
17984;DHT22;9117;52.420;20.728;2023-05-09T05:04:40;6.70;99.90
17984;DHT22;9117;52.420;20.728;2023-05-09T05:07:09;6.80;99.90
17984;DHT22;9117;52.420;20.728;2023-05-09T05:09:38;6.90;99.90
17984;DHT22;9117;52.420;20.728;2023-05-09T05:12:06;7.00;99.90
17984;DHT22;9117;52.420;20.728;2023-05-09T05:14:35;7.10;99.90
17984;DHT22;9117;52.420;20.728;2023-05-09T05:17:04;7.20;99.90
17984;DHT22;9117;52.420;20.728;2023-05-09T05:19:32;7.30;99.90
17984;DHT22;9117;52.420;20.728;2023-05-09T05:22:00;7.40;99.90
17984;DHT22;9117;52.420;20.728;2023-05-09T05:24:28;7.50;99.90
17984;DHT22;9117;52.420;20.728;2023-05-09T05:26:58;7.70;99.90
17984;DHT22;9117;52.420;20.728;2023-05-09T05:29:26;7.80;99.90
17984;DHT22;9117;52.420;20.728;2023-05-09T05:31:54;7.90;99.90
17984;DHT22;9117;52.420;20.728;2023-05-09T05:34:22;8.00;99.90
17984;DHT22;9117;52.420;20.728;2023-05-09T05:36:51;8.10;99.90
17984;DHT22;9117;52.420;20.728;2023-05-09T05:39:19;8.30;99.90
17984;DHT22;9117;52.420;20.728;2023-05-09T05:41:47;8.40;99.90
17984;DHT22;9117;52.420;20.728;2023-05-09T05:44:16;8.60;99.90
17984;DHT22;9117;52.420;20.728;2023-05-09T05:46:45;8.70;99.90
17984;DHT22;9117;52.420;20.728;2023-05-09T05:49:13;8.80;99.90
17984;DHT22;9117;52.420;20.728;2023-05-09T05:51:41;8.80;99.90
17984;DHT22;9117;52.420;20.728;2023-05-09T05:54:09;8.90;99.90
17984;DHT22;9117;52.420;20.728;2023-05-09T05:56:37;9.00;99.90
17984;DHT22;9117;52.420;20.728;2023-05-09T05:59:06;9.00;99.90
17984;DHT22;9117;52.420;20.728;2023-05-09T06:01:35;9.20;99.90
17984;DHT22;9117;52.420;20.728;2023-05-09T06:04:03;9.20;99.50
17984;DHT22;9117;52.420;20.728;2023-05-09T06:06:32;9.40;99.60
17984;DHT22;9117;52.420;20.728;2023-05-09T06:09:00;9.50;99.80
17984;DHT22;9117;52.420;20.728;2023-05-09T06:11:28;9.60;99.80
17984;DHT22;9117;52.420;20.728;2023-05-09T06:13:56;9.70;99.40
17984;DHT22;9117;52.420;20.728;2023-05-09T06:16:25;9.90;99.90
17984;DHT22;9117;52.420;20.728;2023-05-09T06:18:54;9.90;99.10
17984;DHT22;9117;52.420;20.728;2023-05-09T06:21:22;10.00;99.40
17984;DHT22;9117;52.420;20.728;2023-05-09T06:23:51;10.10;99.90
17984;DHT22;9117;52.420;20.728;2023-05-09T06:26:22;10.30;99.90
17984;DHT22;9117;52.420;20.728;2023-05-09T06:28:50;10.40;98.70
17984;DHT22;9117;52.420;20.728;2023-05-09T06:31:18;10.60;97.50
17984;DHT22;9117;52.420;20.728;2023-05-09T06:33:47;10.70;97.80
17984;DHT22;9117;52.420;20.728;2023-05-09T06:36:17;10.90;97.00
17984;DHT22;9117;52.420;20.728;2023-05-09T06:38:45;10.90;96.10
17984;DHT22;9117;52.420;20.728;2023-05-09T06:41:13;11.00;96.40
17984;DHT22;9117;52.420;20.728;2023-05-09T06:43:41;11.10;95.60
17984;DHT22;9117;52.420;20.728;2023-05-09T06:46:09;11.20;95.80
17984;DHT22;9117;52.420;20.728;2023-05-09T06:48:38;11.30;95.70
17984;DHT22;9117;52.420;20.728;2023-05-09T06:51:06;11.40;95.00
17984;DHT22;9117;52.420;20.728;2023-05-09T06:53:36;11.60;95.20
17984;DHT22;9117;52.420;20.728;2023-05-09T06:56:04;11.70;91.50
17984;DHT22;9117;52.420;20.728;2023-05-09T06:58:33;11.80;91.50
17984;DHT22;9117;52.420;20.728;2023-05-09T07:01:02;11.80;92.20
17984;DHT22;9117;52.420;20.728;2023-05-09T07:03:30;12.00;91.90
17984;DHT22;9117;52.420;20.728;2023-05-09T07:05:58;12.00;90.70
17984;DHT22;9117;52.420;20.728;2023-05-09T07:08:27;12.10;89.70
17984;DHT22;9117;52.420;20.728;2023-05-09T07:10:57;12.20;87.20
17984;DHT22;9117;52.420;20.728;2023-05-09T07:13:25;12.30;88.20
17984;DHT22;9117;52.420;20.728;2023-05-09T07:15:53;12.50;84.30
17984;DHT22;9117;52.420;20.728;2023-05-09T07:18:21;12.70;81.00
17984;DHT22;9117;52.420;20.728;2023-05-09T07:20:50;12.70;81.70
17984;DHT22;9117;52.420;20.728;2023-05-09T07:23:18;12.80;80.50
17984;DHT22;9117;52.420;20.728;2023-05-09T07:25:46;12.90;75.20
17984;DHT22;9117;52.420;20.728;2023-05-09T07:28:15;12.90;73.90
17984;DHT22;9117;52.420;20.728;2023-05-09T07:30:44;13.10;75.30
17984;DHT22;9117;52.420;20.728;2023-05-09T07:33:12;13.10;76.80
17984;DHT22;9117;52.420;20.728;2023-05-09T07:35:41;13.20;69.70
17984;DHT22;9117;52.420;20.728;2023-05-09T07:38:09;13.20;66.80
17984;DHT22;9117;52.420;20.728;2023-05-09T07:40:37;13.30;65.30
17984;DHT22;9117;52.420;20.728;2023-05-09T07:43:05;13.30;65.60
17984;DHT22;9117;52.420;20.728;2023-05-09T07:45:35;13.50;60.60
17984;DHT22;9117;52.420;20.728;2023-05-09T07:48:04;13.50;59.50
17984;DHT22;9117;52.420;20.728;2023-05-09T07:50:32;13.50;59.90
17984;DHT22;9117;52.420;20.728;2023-05-09T07:53:00;13.70;57.50
17984;DHT22;9117;52.420;20.728;2023-05-09T07:55:29;13.80;51.70
17984;DHT22;9117;52.420;20.728;2023-05-09T07:57:57;13.90;47.60
17984;DHT22;9117;52.420;20.728;2023-05-09T08:00:25;13.90;46.30
17984;DHT22;9117;52.420;20.728;2023-05-09T08:02:55;14.10;47.10
17984;DHT22;9117;52.420;20.728;2023-05-09T08:05:23;14.10;47.70
17984;DHT22;9117;52.420;20.728;2023-05-09T08:07:51;14.10;46.00
17984;DHT22;9117;52.420;20.728;2023-05-09T08:10:19;14.20;47.80
17984;DHT22;9117;52.420;20.728;2023-05-09T08:12:49;14.20;44.00
17984;DHT22;9117;52.420;20.728;2023-05-09T08:15:18;14.10;41.40
17984;DHT22;9117;52.420;20.728;2023-05-09T08:17:46;14.20;43.60
17984;DHT22;9117;52.420;20.728;2023-05-09T08:20:16;14.20;42.30
17984;DHT22;9117;52.420;20.728;2023-05-09T08:22:44;14.10;43.20
17984;DHT22;9117;52.420;20.728;2023-05-09T08:25:12;14.20;42.60
17984;DHT22;9117;52.420;20.728;2023-05-09T08:27:42;14.20;42.60
17984;DHT22;9117;52.420;20.728;2023-05-09T08:30:12;14.20;43.30
17984;DHT22;9117;52.420;20.728;2023-05-09T08:32:40;14.20;42.60
17984;DHT22;9117;52.420;20.728;2023-05-09T08:35:08;14.30;44.00
17984;DHT22;9117;52.420;20.728;2023-05-09T08:37:38;14.50;44.20
17984;DHT22;9117;52.420;20.728;2023-05-09T08:40:07;14.70;43.70
17984;DHT22;9117;52.420;20.728;2023-05-09T08:42:36;14.90;43.00
17984;DHT22;9117;52.420;20.728;2023-05-09T08:45:08;15.00;41.50
17984;DHT22;9117;52.420;20.728;2023-05-09T08:47:38;14.90;39.30
17984;DHT22;9117;52.420;20.728;2023-05-09T08:50:07;14.90;39.20
17984;DHT22;9117;52.420;20.728;2023-05-09T08:52:36;14.90;37.40
17984;DHT22;9117;52.420;20.728;2023-05-09T08:55:06;14.80;38.60
17984;DHT22;9117;52.420;20.728;2023-05-09T08:57:34;15.00;38.10
17984;DHT22;9117;52.420;20.728;2023-05-09T09:00:03;15.00;38.60
17984;DHT22;9117;52.420;20.728;2023-05-09T09:02:34;15.10;36.70
17984;DHT22;9117;52.420;20.728;2023-05-09T09:05:04;15.00;36.10
17984;DHT22;9117;52.420;20.728;2023-05-09T09:07:35;15.10;37.30
17984;DHT22;9117;52.420;20.728;2023-05-09T09:10:07;15.20;36.50
17984;DHT22;9117;52.420;20.728;2023-05-09T09:12:37;15.10;35.20
17984;DHT22;9117;52.420;20.728;2023-05-09T09:15:11;15.10;36.20
17984;DHT22;9117;52.420;20.728;2023-05-09T09:17:42;15.20;36.40
17984;DHT22;9117;52.420;20.728;2023-05-09T09:20:13;15.30;36.80
17984;DHT22;9117;52.420;20.728;2023-05-09T09:22:44;15.20;34.70
17984;DHT22;9117;52.420;20.728;2023-05-09T09:25:16;15.10;35.70
17984;DHT22;9117;52.420;20.728;2023-05-09T09:27:44;15.30;37.30
17984;DHT22;9117;52.420;20.728;2023-05-09T09:30:13;15.50;38.20
17984;DHT22;9117;52.420;20.728;2023-05-09T09:32:42;15.60;38.50
17984;DHT22;9117;52.420;20.728;2023-05-09T09:35:11;15.70;36.10
17984;DHT22;9117;52.420;20.728;2023-05-09T09:37:39;15.70;35.60
17984;DHT22;9117;52.420;20.728;2023-05-09T09:40:10;15.70;33.80
17984;DHT22;9117;52.420;20.728;2023-05-09T09:42:43;15.80;34.80
17984;DHT22;9117;52.420;20.728;2023-05-09T09:45:12;15.70;35.10
17984;DHT22;9117;52.420;20.728;2023-05-09T09:47:42;15.70;32.80
17984;DHT22;9117;52.420;20.728;2023-05-09T09:50:12;15.70;33.50
17984;DHT22;9117;52.420;20.728;2023-05-09T09:52:42;15.70;34.50
17984;DHT22;9117;52.420;20.728;2023-05-09T09:55:11;15.40;32.90
17984;DHT22;9117;52.420;20.728;2023-05-09T09:57:40;15.80;34.60
17984;DHT22;9117;52.420;20.728;2023-05-09T10:00:14;15.90;34.10
17984;DHT22;9117;52.420;20.728;2023-05-09T10:02:47;15.90;33.30
17984;DHT22;9117;52.420;20.728;2023-05-09T10:05:20;15.90;33.40
17984;DHT22;9117;52.420;20.728;2023-05-09T10:07:55;15.90;33.40
17984;DHT22;9117;52.420;20.728;2023-05-09T10:10:28;15.90;32.80
17984;DHT22;9117;52.420;20.728;2023-05-09T10:12:58;16.00;30.50
17984;DHT22;9117;52.420;20.728;2023-05-09T10:15:29;15.80;31.40
17984;DHT22;9117;52.420;20.728;2023-05-09T10:18:16;16.00;32.30
17984;DHT22;9117;52.420;20.728;2023-05-09T10:20:47;16.10;31.90
17984;DHT22;9117;52.420;20.728;2023-05-09T10:23:17;16.20;32.00
17984;DHT22;9117;52.420;20.728;2023-05-09T10:25:48;16.20;31.60
17984;DHT22;9117;52.420;20.728;2023-05-09T10:28:23;16.00;31.10
17984;DHT22;9117;52.420;20.728;2023-05-09T10:31:00;16.00;33.10
17984;DHT22;9117;52.420;20.728;2023-05-09T10:33:41;16.20;31.80
17984;DHT22;9117;52.420;20.728;2023-05-09T10:36:10;16.40;31.70
17984;DHT22;9117;52.420;20.728;2023-05-09T10:38:41;16.40;30.10
17984;DHT22;9117;52.420;20.728;2023-05-09T10:41:09;16.50;30.20
17984;DHT22;9117;52.420;20.728;2023-05-09T10:43:38;16.20;29.80
17984;DHT22;9117;52.420;20.728;2023-05-09T10:46:08;16.40;30.00
17984;DHT22;9117;52.420;20.728;2023-05-09T10:48:37;16.40;31.20
17984;DHT22;9117;52.420;20.728;2023-05-09T10:51:07;16.70;32.70
17984;DHT22;9117;52.420;20.728;2023-05-09T10:53:43;16.70;30.00
17984;DHT22;9117;52.420;20.728;2023-05-09T10:56:22;16.70;32.00
17984;DHT22;9117;52.420;20.728;2023-05-09T10:58:50;16.60;28.90
17984;DHT22;9117;52.420;20.728;2023-05-09T11:01:30;16.50;30.50
17984;DHT22;9117;52.420;20.728;2023-05-09T11:04:07;16.40;31.80
17984;DHT22;9117;52.420;20.728;2023-05-09T11:06:43;16.60;31.00
17984;DHT22;9117;52.420;20.728;2023-05-09T11:09:26;16.60;30.50
17984;DHT22;9117;52.420;20.728;2023-05-09T11:11:57;16.70;32.00
17984;DHT22;9117;52.420;20.728;2023-05-09T11:14:29;16.70;30.20
17984;DHT22;9117;52.420;20.728;2023-05-09T11:17:00;16.70;30.10
17984;DHT22;9117;52.420;20.728;2023-05-09T11:19:36;16.80;31.10
17984;DHT22;9117;52.420;20.728;2023-05-09T11:22:11;16.80;29.70
17984;DHT22;9117;52.420;20.728;2023-05-09T11:24:44;17.00;30.30
17984;DHT22;9117;52.420;20.728;2023-05-09T11:27:18;17.10;32.70
17984;DHT22;9117;52.420;20.728;2023-05-09T11:29:49;17.00;31.70
17984;DHT22;9117;52.420;20.728;2023-05-09T11:32:20;17.10;30.90
17984;DHT22;9117;52.420;20.728;2023-05-09T11:34:49;17.40;31.80
17984;DHT22;9117;52.420;20.728;2023-05-09T11:37:17;17.50;31.20
17984;DHT22;9117;52.420;20.728;2023-05-09T11:39:56;17.40;30.60
17984;DHT22;9117;52.420;20.728;2023-05-09T11:42:26;17.20;31.40
17984;DHT22;9117;52.420;20.728;2023-05-09T11:44:55;17.30;33.00
17984;DHT22;9117;52.420;20.728;2023-05-09T11:47:25;17.40;31.50
17984;DHT22;9117;52.420;20.728;2023-05-09T11:49:54;17.50;32.80
17984;DHT22;9117;52.420;20.728;2023-05-09T11:52:23;17.70;32.00
17984;DHT22;9117;52.420;20.728;2023-05-09T11:54:51;17.60;32.60
17984;DHT22;9117;52.420;20.728;2023-05-09T11:57:19;17.70;34.50
17984;DHT22;9117;52.420;20.728;2023-05-09T11:59:48;17.50;32.10
17984;DHT22;9117;52.420;20.728;2023-05-09T12:02:16;17.80;31.10
17984;DHT22;9117;52.420;20.728;2023-05-09T12:04:46;18.10;32.50
17984;DHT22;9117;52.420;20.728;2023-05-09T12:07:14;18.00;29.40
17984;DHT22;9117;52.420;20.728;2023-05-09T12:09:44;17.80;29.60
17984;DHT22;9117;52.420;20.728;2023-05-09T12:12:12;18.10;30.60
17984;DHT22;9117;52.420;20.728;2023-05-09T12:14:41;18.00;29.70
17984;DHT22;9117;52.420;20.728;2023-05-09T12:17:09;17.80;29.50
17984;DHT22;9117;52.420;20.728;2023-05-09T12:19:37;18.00;29.60
17984;DHT22;9117;52.420;20.728;2023-05-09T12:22:07;18.20;30.00
17984;DHT22;9117;52.420;20.728;2023-05-09T12:24:35;18.60;29.60
17984;DHT22;9117;52.420;20.728;2023-05-09T12:27:04;18.50;29.30
17984;DHT22;9117;52.420;20.728;2023-05-09T12:29:34;18.20;30.50
17984;DHT22;9117;52.420;20.728;2023-05-09T12:32:02;18.30;30.00
17984;DHT22;9117;52.420;20.728;2023-05-09T12:34:31;18.80;30.30
17984;DHT22;9117;52.420;20.728;2023-05-09T12:36:59;19.20;30.50
17984;DHT22;9117;52.420;20.728;2023-05-09T12:39:30;18.90;29.00
17984;DHT22;9117;52.420;20.728;2023-05-09T12:41:59;19.20;29.60
17984;DHT22;9117;52.420;20.728;2023-05-09T12:44:28;19.70;30.30
17984;DHT22;9117;52.420;20.728;2023-05-09T12:46:57;19.80;29.00
17984;DHT22;9117;52.420;20.728;2023-05-09T12:49:26;20.00;28.70
17984;DHT22;9117;52.420;20.728;2023-05-09T12:51:56;19.90;27.50
17984;DHT22;9117;52.420;20.728;2023-05-09T12:54:25;20.20;28.00
17984;DHT22;9117;52.420;20.728;2023-05-09T12:56:56;19.90;28.60
17984;DHT22;9117;52.420;20.728;2023-05-09T12:59:26;19.80;28.80
17984;DHT22;9117;52.420;20.728;2023-05-09T13:01:56;20.40;29.30
17984;DHT22;9117;52.420;20.728;2023-05-09T13:04:26;20.70;27.90
17984;DHT22;9117;52.420;20.728;2023-05-09T13:06:56;21.50;29.70
17984;DHT22;9117;52.420;20.728;2023-05-09T13:09:26;21.60;29.00
17984;DHT22;9117;52.420;20.728;2023-05-09T13:11:55;21.70;28.50
17984;DHT22;9117;52.420;20.728;2023-05-09T13:14:24;21.20;28.10
17984;DHT22;9117;52.420;20.728;2023-05-09T13:16:53;20.70;27.30
17984;DHT22;9117;52.420;20.728;2023-05-09T13:19:21;20.40;28.90
17984;DHT22;9117;52.420;20.728;2023-05-09T13:21:49;20.90;27.70
17984;DHT22;9117;52.420;20.728;2023-05-09T13:24:18;21.10;28.10
17984;DHT22;9117;52.420;20.728;2023-05-09T13:26:46;21.10;28.60
17984;DHT22;9117;52.420;20.728;2023-05-09T13:29:16;21.40;26.80
17984;DHT22;9117;52.420;20.728;2023-05-09T13:31:44;22.10;28.20
17984;DHT22;9117;52.420;20.728;2023-05-09T13:34:12;22.30;27.50
17984;DHT22;9117;52.420;20.728;2023-05-09T13:36:40;21.70;26.50
17984;DHT22;9117;52.420;20.728;2023-05-09T13:39:08;20.80;26.90
17984;DHT22;9117;52.420;20.728;2023-05-09T13:41:37;20.40;27.30
17984;DHT22;9117;52.420;20.728;2023-05-09T13:44:05;21.20;27.80
17984;DHT22;9117;52.420;20.728;2023-05-09T13:46:34;21.60;28.20
17984;DHT22;9117;52.420;20.728;2023-05-09T13:49:03;22.20;28.30
17984;DHT22;9117;52.420;20.728;2023-05-09T13:51:31;20.90;27.10
17984;DHT22;9117;52.420;20.728;2023-05-09T13:54:00;21.00;28.40
17984;DHT22;9117;52.420;20.728;2023-05-09T13:56:29;21.20;28.00
17984;DHT22;9117;52.420;20.728;2023-05-09T13:58:57;21.10;27.70
17984;DHT22;9117;52.420;20.728;2023-05-09T14:01:26;21.20;27.70
17984;DHT22;9117;52.420;20.728;2023-05-09T14:03:55;21.30;27.00
17984;DHT22;9117;52.420;20.728;2023-05-09T14:06:24;21.20;27.50
17984;DHT22;9117;52.420;20.728;2023-05-09T14:08:52;21.10;28.30
17984;DHT22;9117;52.420;20.728;2023-05-09T14:11:20;22.10;29.60
17984;DHT22;9117;52.420;20.728;2023-05-09T14:13:49;22.30;27.80
17984;DHT22;9117;52.420;20.728;2023-05-09T14:16:18;22.40;27.70
17984;DHT22;9117;52.420;20.728;2023-05-09T14:18:46;21.70;26.80
17984;DHT22;9117;52.420;20.728;2023-05-09T14:21:16;22.00;28.00
17984;DHT22;9117;52.420;20.728;2023-05-09T14:23:44;22.70;27.00
17984;DHT22;9117;52.420;20.728;2023-05-09T14:26:12;22.50;27.30
17984;DHT22;9117;52.420;20.728;2023-05-09T14:28:41;21.80;27.30
17984;DHT22;9117;52.420;20.728;2023-05-09T14:31:10;21.20;27.50
17984;DHT22;9117;52.420;20.728;2023-05-09T14:33:39;21.90;28.10
17984;DHT22;9117;52.420;20.728;2023-05-09T14:36:07;22.60;27.90
17984;DHT22;9117;52.420;20.728;2023-05-09T14:38:37;22.40;26.50
17984;DHT22;9117;52.420;20.728;2023-05-09T14:41:06;23.20;26.80
17984;DHT22;9117;52.420;20.728;2023-05-09T14:43:34;23.80;27.60
17984;DHT22;9117;52.420;20.728;2023-05-09T14:46:03;24.00;26.10
17984;DHT22;9117;52.420;20.728;2023-05-09T14:48:31;22.90;26.00
17984;DHT22;9117;52.420;20.728;2023-05-09T14:50:59;21.50;26.50
17984;DHT22;9117;52.420;20.728;2023-05-09T14:53:28;22.00;27.70
17984;DHT22;9117;52.420;20.728;2023-05-09T14:55:58;21.30;26.90
17984;DHT22;9117;52.420;20.728;2023-05-09T14:58:27;22.00;26.70
17984;DHT22;9117;52.420;20.728;2023-05-09T15:01:00;23.00;27.60
17984;DHT22;9117;52.420;20.728;2023-05-09T15:03:28;23.50;27.70
17984;DHT22;9117;52.420;20.728;2023-05-09T15:05:57;23.70;26.10
17984;DHT22;9117;52.420;20.728;2023-05-09T15:08:25;23.80;27.90
17984;DHT22;9117;52.420;20.728;2023-05-09T15:10:54;24.30;26.20
17984;DHT22;9117;52.420;20.728;2023-05-09T15:13:24;23.60;25.90
17984;DHT22;9117;52.420;20.728;2023-05-09T15:15:52;21.70;25.80
17984;DHT22;9117;52.420;20.728;2023-05-09T15:18:21;22.10;26.10
17984;DHT22;9117;52.420;20.728;2023-05-09T15:20:52;22.50;26.20
17984;DHT22;9117;52.420;20.728;2023-05-09T15:23:20;22.70;26.40
17984;DHT22;9117;52.420;20.728;2023-05-09T15:25:49;23.40;25.90
17984;DHT22;9117;52.420;20.728;2023-05-09T15:28:17;23.40;25.30
17984;DHT22;9117;52.420;20.728;2023-05-09T15:30:47;24.30;26.10
17984;DHT22;9117;52.420;20.728;2023-05-09T15:33:15;22.70;24.60
17984;DHT22;9117;52.420;20.728;2023-05-09T15:35:44;22.20;25.10
17984;DHT22;9117;52.420;20.728;2023-05-09T15:38:12;23.20;24.80
17984;DHT22;9117;52.420;20.728;2023-05-09T15:40:41;23.50;24.80
17984;DHT22;9117;52.420;20.728;2023-05-09T15:43:09;23.80;25.20
17984;DHT22;9117;52.420;20.728;2023-05-09T15:45:38;23.90;25.10
17984;DHT22;9117;52.420;20.728;2023-05-09T15:48:14;22.80;25.20
17984;DHT22;9117;52.420;20.728;2023-05-09T15:50:43;22.70;26.40
17984;DHT22;9117;52.420;20.728;2023-05-09T15:53:11;23.50;26.70